Time;durP1;ratioP1;P1;durP2;ratioP2;P2;SDS_P1;SDS_P2;PMS_P1;PMS_P2;Temp;Humidity;BMP_temperature;BMP_pressure;BME280_temperature;BME280_humidity;BME280_pressure;Samples;Min_cycle;Max_cycle;Signal;HPM_P1;HPM_P2
2022/03/16 00:00:13;;;;;;;12.38;5.20;;;0.90;99.90;;;;;;4900894;29;20052;-69
2022/03/16 00:02:41;;;;;;;8.10;4.15;;;0.80;99.90;;;;;;4896229;29;20068;-69
2022/03/16 00:05:09;;;;;;;5.35;3.50;;;0.80;99.90;;;;;;4911946;29;20076;-69
2022/03/16 00:07:37;;;;;;;10.60;4.35;;;0.80;99.90;;;;;;4897508;29;20532;-69
2022/03/16 00:10:08;;;;;;;8.25;3.35;;;0.80;99.90;;;;;;4914577;29;20469;-71
2022/03/16 00:12:36;;;;;;;6.28;3.70;;;0.80;99.90;;;;;;4914299;29;20064;-69
2022/03/16 00:15:05;;;;;;;5.93;3.25;;;0.70;99.90;;;;;;4914332;29;20091;-70
2022/03/16 00:17:32;;;;;;;7.65;3.35;;;0.70;99.90;;;;;;4900896;29;20413;-69
2022/03/16 00:19:59;;;;;;;5.10;3.92;;;0.70;99.90;;;;;;4898733;29;20131;-70
2022/03/16 00:22:27;;;;;;;7.28;4.05;;;0.70;99.90;;;;;;4897302;29;20041;-69
2022/03/16 00:24:54;;;;;;;5.97;3.53;;;0.60;99.90;;;;;;4897214;29;20048;-70
2022/03/16 00:27:23;;;;;;;7.68;3.65;;;0.50;99.90;;;;;;4908927;29;20052;-69
2022/03/16 00:29:50;;;;;;;9.23;4.35;;;0.50;99.90;;;;;;4914641;29;20100;-69
2022/03/16 00:32:17;;;;;;;5.22;3.53;;;0.50;99.90;;;;;;4898705;29;20486;-69
2022/03/16 00:34:45;;;;;;;5.95;3.30;;;0.50;99.90;;;;;;4913246;29;20048;-70
2022/03/16 00:37:14;;;;;;;6.80;3.47;;;0.50;99.90;;;;;;4915779;29;20099;-69
2022/03/16 00:39:41;;;;;;;7.95;3.65;;;0.50;99.90;;;;;;4914439;29;20539;-70
2022/03/16 00:42:09;;;;;;;6.63;3.03;;;0.50;99.90;;;;;;4914577;29;20079;-69
2022/03/16 00:44:38;;;;;;;8.82;4.25;;;0.50;99.90;;;;;;4913105;29;20055;-69
2022/03/16 00:47:06;;;;;;;9.88;4.70;;;0.50;99.90;;;;;;4915746;29;20422;-69
2022/03/16 00:49:34;;;;;;;5.93;3.53;;;0.50;99.90;;;;;;4915453;29;20083;-69
2022/03/16 00:52:02;;;;;;;6.30;3.40;;;0.50;99.90;;;;;;4915318;29;20055;-69
2022/03/16 00:54:30;;;;;;;7.57;3.67;;;0.50;99.90;;;;;;4908123;29;20042;-69
2022/03/16 00:56:58;;;;;;;7.88;3.63;;;0.50;99.90;;;;;;4880046;29;20048;-76
2022/03/16 00:59:26;;;;;;;6.60;3.15;;;0.50;99.90;;;;;;4895040;29;20055;-75
2022/03/16 01:01:55;;;;;;;6.00;3.42;;;0.50;99.90;;;;;;4879129;29;20156;-75
2022/03/16 01:04:22;;;;;;;9.40;4.35;;;0.50;99.90;;;;;;4915285;29;20055;-76
2022/03/16 01:06:53;;;;;;;5.75;3.55;;;0.40;99.90;;;;;;4915493;29;20052;-75
2022/03/16 01:09:20;;;;;;;10.32;3.65;;;0.30;99.90;;;;;;4914037;29;20056;-75
2022/03/16 01:11:48;;;;;;;8.27;3.72;;;0.30;99.90;;;;;;4897645;29;20090;-75
2022/03/16 01:14:15;;;;;;;11.38;3.45;;;0.20;99.90;;;;;;4930009;29;20185;-76
2022/03/16 01:16:43;;;;;;;5.47;3.90;;;0.20;99.90;;;;;;4900750;29;20503;-76
2022/03/16 01:19:14;;;;;;;6.78;3.08;;;0.20;99.90;;;;;;4899099;29;20330;-77
2022/03/16 01:21:42;;;;;;;4.75;3.20;;;0.20;99.90;;;;;;4909261;29;20142;-76
2022/03/16 01:24:11;;;;;;;6.35;3.45;;;0.10;99.90;;;;;;4898204;29;20583;-74
2022/03/16 01:26:39;;;;;;;6.80;3.55;;;0.10;99.90;;;;;;4915150;29;20071;-75
2022/03/16 01:29:06;;;;;;;6.75;3.10;;;0.10;99.90;;;;;;4912529;29;20047;-75
2022/03/16 01:31:36;;;;;;;3.92;2.55;;;0.00;99.90;;;;;;4913531;29;20043;-76
2022/03/16 01:34:03;;;;;;;3.63;2.55;;;0.00;99.90;;;;;;4914777;29;20128;-75
2022/03/16 01:36:32;;;;;;;6.05;3.40;;;0.00;99.90;;;;;;4913717;29;20468;-75
2022/03/16 01:39:00;;;;;;;4.93;3.00;;;0.00;99.90;;;;;;4897544;29;20052;-76
2022/03/16 01:41:27;;;;;;;11.70;3.28;;;0.00;99.90;;;;;;4914240;29;20530;-75
2022/03/16 01:43:56;;;;;;;6.85;3.22;;;0.00;99.90;;;;;;4915316;29;20052;-76
2022/03/16 01:46:24;;;;;;;6.70;3.05;;;-0.10;99.90;;;;;;4897759;29;20060;-76
2022/03/16 01:48:52;;;;;;;4.95;3.13;;;0.00;99.90;;;;;;4898954;29;20064;-75
2022/03/16 01:51:20;;;;;;;6.40;2.95;;;0.00;99.90;;;;;;4895905;29;20057;-75
2022/03/16 01:53:50;;;;;;;6.75;3.70;;;0.00;99.90;;;;;;4894424;29;20511;-75
2022/03/16 01:56:18;;;;;;;6.38;3.92;;;0.00;99.90;;;;;;4895386;29;20056;-75
2022/03/16 01:58:46;;;;;;;6.28;3.65;;;0.00;99.90;;;;;;4929263;29;20052;-75
2022/03/16 02:01:14;;;;;;;5.43;2.70;;;0.00;99.90;;;;;;4929204;29;20056;-69
2022/03/16 02:03:43;;;;;;;5.25;2.80;;;0.00;99.90;;;;;;4913384;29;20055;-70
2022/03/16 02:06:12;;;;;;;7.20;2.95;;;-0.10;99.90;;;;;;4913016;29;20323;-70
2022/03/16 02:08:40;;;;;;;5.13;3.55;;;-0.10;99.90;;;;;;4914547;29;20470;-70
2022/03/16 02:11:09;;;;;;;4.75;2.92;;;-0.10;99.90;;;;;;4897636;29;20647;-70
2022/03/16 02:13:37;;;;;;;6.90;3.17;;;-0.10;99.90;;;;;;4897079;29;20052;-71
2022/03/16 02:16:05;;;;;;;5.45;2.92;;;-0.10;99.90;;;;;;4906939;29;20153;-70
2022/03/16 02:18:32;;;;;;;8.73;3.28;;;-0.10;99.90;;;;;;4899263;29;20052;-70
2022/03/16 02:21:02;;;;;;;8.10;3.28;;;-0.20;99.90;;;;;;4896203;29;20067;-69
2022/03/16 02:23:31;;;;;;;6.80;3.30;;;-0.20;99.90;;;;;;4898866;29;20036;-69
2022/03/16 02:25:59;;;;;;;11.32;3.17;;;-0.20;99.90;;;;;;4914432;29;20060;-69
2022/03/16 02:28:27;;;;;;;9.90;3.25;;;-0.20;99.90;;;;;;4912958;29;20120;-69
2022/03/16 02:30:55;;;;;;;7.57;3.28;;;-0.20;99.90;;;;;;4914125;29;20150;-69
2022/03/16 02:33:23;;;;;;;4.57;3.25;;;-0.20;99.90;;;;;;4913228;29;20442;-69
2022/03/16 02:35:50;;;;;;;9.80;3.95;;;-0.20;99.90;;;;;;4916896;29;20056;-71
2022/03/16 02:38:18;;;;;;;10.82;4.45;;;-0.30;99.90;;;;;;4917823;29;20070;-69
2022/03/16 02:40:48;;;;;;;9.50;3.75;;;-0.30;99.90;;;;;;4916583;29;20056;-70
2022/03/16 02:43:15;;;;;;;9.40;3.15;;;-0.40;99.90;;;;;;4916633;29;20131;-70
2022/03/16 02:45:42;;;;;;;5.32;2.95;;;-0.40;99.90;;;;;;4917592;29;20056;-69
2022/03/16 02:48:10;;;;;;;5.88;2.95;;;-0.40;99.90;;;;;;4918086;29;20056;-68
2022/03/16 02:50:37;;;;;;;4.90;3.20;;;-0.40;99.90;;;;;;4915328;29;20517;-69
2022/03/16 02:53:06;;;;;;;6.57;3.55;;;-0.40;99.90;;;;;;4916233;29;20062;-69
2022/03/16 02:55:44;;;;;;;4.78;3.22;;;-0.40;99.90;;;;;;4900796;29;20040;-70
2022/03/16 02:58:36;;;;;;;5.38;2.92;;;-0.40;99.90;;;;;;4917405;29;20056;-71
2022/03/16 03:01:04;;;;;;;6.18;3.65;;;-0.40;99.90;;;;;;4905359;29;20470;-70
2022/03/16 03:03:32;;;;;;;9.48;3.67;;;-0.50;99.90;;;;;;4905914;29;20420;-69
2022/03/16 03:05:59;;;;;;;6.75;3.45;;;-0.50;99.90;;;;;;4908517;29;20424;-69
2022/03/16 03:08:26;;;;;;;10.20;3.25;;;-0.50;99.90;;;;;;4898401;29;20056;-70
2022/03/16 03:10:54;;;;;;;4.63;3.38;;;-0.50;99.90;;;;;;4914890;29;20151;-70
2022/03/16 03:13:21;;;;;;;7.70;3.55;;;-0.50;99.90;;;;;;4917073;29;20070;-69
2022/03/16 03:15:50;;;;;;;7.80;3.70;;;-0.50;99.90;;;;;;4910103;29;20071;-70
2022/03/16 03:18:17;;;;;;;5.13;3.22;;;-0.60;99.90;;;;;;4900157;29;20055;-69
2022/03/16 03:20:45;;;;;;;4.88;3.10;;;-0.60;99.90;;;;;;4899771;29;20053;-70
2022/03/16 03:23:12;;;;;;;6.07;3.40;;;-0.60;99.90;;;;;;4897952;29;20048;-69
2022/03/16 03:25:40;;;;;;;11.02;4.03;;;-0.60;99.90;;;;;;4898475;29;20120;-69
2022/03/16 03:28:07;;;;;;;9.00;3.60;;;-0.60;99.90;;;;;;4892176;29;20056;-69
2022/03/16 03:30:35;;;;;;;6.50;3.88;;;-0.60;99.90;;;;;;4915706;29;20052;-70
2022/03/16 03:33:03;;;;;;;6.07;3.40;;;-0.70;99.90;;;;;;4915740;29;20456;-69
2022/03/16 03:35:31;;;;;;;7.97;3.55;;;-0.70;99.90;;;;;;4915753;29;20391;-69
2022/03/16 03:37:58;;;;;;;7.47;3.70;;;-0.70;99.90;;;;;;4914549;29;20050;-75
2022/03/16 03:40:26;;;;;;;12.32;3.67;;;-0.70;99.90;;;;;;4915519;29;20058;-75
2022/03/16 03:42:53;;;;;;;7.82;4.18;;;-0.70;99.90;;;;;;4915808;29;20061;-76
2022/03/16 03:45:21;;;;;;;6.70;3.47;;;-0.70;99.90;;;;;;4900175;29;20052;-75
2022/03/16 03:47:48;;;;;;;5.93;3.55;;;-0.70;99.90;;;;;;4914214;29;20051;-76
2022/03/16 03:50:17;;;;;;;8.38;3.45;;;-0.70;99.90;;;;;;4931581;29;20489;-76
2022/03/16 03:52:45;;;;;;;6.57;3.17;;;-0.80;99.90;;;;;;4917002;29;20055;-75
2022/03/16 03:55:12;;;;;;;6.53;2.95;;;-0.80;99.90;;;;;;4916324;29;20644;-77
2022/03/16 03:57:39;;;;;;;5.80;3.67;;;-0.90;99.90;;;;;;4931796;29;20047;-75
2022/03/16 04:00:10;;;;;;;6.78;3.10;;;-0.90;99.90;;;;;;4915527;29;20048;-76
2022/03/16 04:02:48;;;;;;;11.00;3.78;;;-0.90;99.90;;;;;;4899261;29;20048;-76
2022/03/16 04:05:18;;;;;;;6.45;2.92;;;-1.00;99.90;;;;;;4896639;29;20049;-76
2022/03/16 04:07:48;;;;;;;7.72;3.58;;;-1.00;99.90;;;;;;4897674;29;20052;-76
2022/03/16 04:10:16;;;;;;;6.38;3.50;;;-1.00;99.90;;;;;;4898039;29;20168;-76
2022/03/16 04:12:43;;;;;;;10.27;2.90;;;-0.90;99.90;;;;;;4910124;29;20050;-75
2022/03/16 04:15:12;;;;;;;16.58;3.63;;;-0.90;99.90;;;;;;4907676;29;21553;-75
2022/03/16 04:17:39;;;;;;;10.75;3.55;;;-0.90;99.90;;;;;;4901733;29;20040;-77
2022/03/16 04:20:08;;;;;;;8.27;3.30;;;-0.90;99.90;;;;;;4903269;29;20059;-74
2022/03/16 04:22:38;;;;;;;13.18;3.92;;;-1.00;99.90;;;;;;4908977;29;20067;-76
2022/03/16 04:25:07;;;;;;;7.63;3.42;;;-1.00;99.90;;;;;;4906990;29;20052;-76
2022/03/16 04:27:34;;;;;;;7.00;3.50;;;-1.00;99.90;;;;;;4899028;29;20056;-77
2022/03/16 04:30:03;;;;;;;13.95;4.18;;;-1.00;99.90;;;;;;4911779;29;20048;-76
2022/03/16 04:32:32;;;;;;;10.10;4.38;;;-1.00;99.90;;;;;;4888942;29;20090;-74
2022/03/16 04:35:02;;;;;;;4.82;3.05;;;-1.00;99.90;;;;;;4897135;29;20048;-77
2022/03/16 04:37:31;;;;;;;8.50;3.58;;;-1.00;99.90;;;;;;4912052;29;20102;-76
2022/03/16 04:39:59;;;;;;;8.10;3.47;;;-1.00;99.90;;;;;;4903291;29;20052;-70
2022/03/16 04:42:27;;;;;;;9.23;3.22;;;-1.00;99.90;;;;;;4914398;29;20539;-71
2022/03/16 04:44:55;;;;;;;10.43;3.38;;;-1.10;99.90;;;;;;4916032;29;20461;-72
2022/03/16 04:47:22;;;;;;;11.75;3.33;;;-1.10;99.90;;;;;;4916434;29;20518;-77
2022/03/16 04:49:50;;;;;;;6.75;3.47;;;-1.20;99.90;;;;;;4914487;29;20552;-78
2022/03/16 04:52:17;;;;;;;7.93;3.20;;;-1.10;99.90;;;;;;4914713;29;20192;-75
2022/03/16 04:54:45;;;;;;;9.02;4.18;;;-1.10;99.90;;;;;;4913061;29;20048;-76
2022/03/16 04:57:14;;;;;;;14.93;3.70;;;-1.00;99.90;;;;;;4928930;29;20084;-78
2022/03/16 04:59:41;;;;;;;13.88;3.65;;;-1.00;99.90;;;;;;4895442;29;20045;-77
2022/03/16 05:02:09;;;;;;;14.60;4.45;;;-1.00;99.90;;;;;;4897778;29;20057;-76
2022/03/16 05:04:36;;;;;;;10.65;3.63;;;-1.00;99.90;;;;;;4897052;29;20053;-76
2022/03/16 05:07:05;;;;;;;18.67;4.07;;;-1.00;99.90;;;;;;4901563;29;20044;-76
2022/03/16 05:09:35;;;;;;;14.57;3.33;;;-1.00;99.90;;;;;;4897216;29;20051;-77
2022/03/16 05:12:02;;;;;;;12.35;4.03;;;-0.90;99.90;;;;;;4903492;29;20056;-69
2022/03/16 05:14:34;;;;;;;24.63;4.63;;;-1.00;99.90;;;;;;4906310;29;20044;-70
2022/03/16 05:17:01;;;;;;;12.43;3.13;;;-0.90;99.90;;;;;;4911560;29;20107;-76
2022/03/16 05:19:36;;;;;;;9.30;3.75;;;-0.90;99.90;;;;;;4899960;29;20072;-77
2022/03/16 05:22:04;;;;;;;12.65;4.47;;;-0.90;99.90;;;;;;4896411;29;20108;-75
2022/03/16 05:24:32;;;;;;;6.95;3.33;;;-0.90;99.90;;;;;;4915985;29;20086;-75
2022/03/16 05:27:02;;;;;;;12.43;5.47;;;-0.90;99.90;;;;;;4913392;29;20123;-76
2022/03/16 05:29:40;;;;;;;21.05;4.30;;;-0.80;99.90;;;;;;4905836;29;20044;-70
2022/03/16 05:32:10;;;;;;;15.13;4.10;;;-0.70;99.90;;;;;;4902722;29;20056;-70
2022/03/16 05:34:37;;;;;;;12.20;3.97;;;-0.70;99.90;;;;;;4918321;29;20079;-70
2022/03/16 05:37:06;;;;;;;25.25;3.20;;;-0.70;99.90;;;;;;4913019;29;20052;-71
2022/03/16 05:39:34;;;;;;;9.52;4.07;;;-0.60;99.90;;;;;;4912023;29;20052;-70
2022/03/16 05:42:02;;;;;;;8.85;3.60;;;-0.60;99.90;;;;;;4915333;29;20052;-69
2022/03/16 05:44:30;;;;;;;15.63;4.28;;;-0.60;99.90;;;;;;4921311;29;20062;-69
2022/03/16 05:46:58;;;;;;;15.95;4.70;;;-0.60;99.90;;;;;;4931393;29;20051;-69
2022/03/16 05:49:28;;;;;;;11.68;4.03;;;-0.60;99.90;;;;;;4931653;29;20047;-70
2022/03/16 05:51:55;;;;;;;10.95;4.43;;;-0.60;99.90;;;;;;4927395;29;20079;-69
2022/03/16 05:54:23;;;;;;;22.70;4.53;;;-0.60;99.90;;;;;;4912456;29;20056;-69
2022/03/16 05:56:50;;;;;;;13.55;4.25;;;-0.60;99.90;;;;;;4914579;29;20044;-77
2022/03/16 05:59:18;;;;;;;15.27;4.05;;;-0.50;99.90;;;;;;4914236;29;20060;-77
2022/03/16 06:01:45;;;;;;;16.65;4.75;;;-0.50;99.90;;;;;;4922771;29;20071;-76
2022/03/16 06:04:14;;;;;;;8.85;3.08;;;-0.40;99.90;;;;;;4914456;29;20062;-75
2022/03/16 06:06:41;;;;;;;11.93;3.33;;;-0.40;99.90;;;;;;4910837;29;20044;-75
2022/03/16 06:09:09;;;;;;;13.88;3.40;;;-0.40;99.90;;;;;;4910809;29;20071;-74
2022/03/16 06:11:39;;;;;;;12.98;3.28;;;-0.30;99.90;;;;;;4911300;29;20052;-76
2022/03/16 06:14:06;;;;;;;12.18;3.45;;;-0.20;99.90;;;;;;4917561;29;20763;-70
2022/03/16 06:16:34;;;;;;;14.57;3.30;;;-0.20;99.90;;;;;;4917329;29;20068;-76
2022/03/16 06:19:01;;;;;;;15.05;3.08;;;-0.20;99.90;;;;;;4916420;29;20055;-76
2022/03/16 06:21:30;;;;;;;13.82;3.30;;;-0.10;99.90;;;;;;4917984;29;20517;-70
2022/03/16 06:23:57;;;;;;;14.70;3.60;;;-0.10;99.90;;;;;;4917175;29;20052;-69
2022/03/16 06:26:24;;;;;;;25.30;4.63;;;0.00;99.90;;;;;;4910481;29;20533;-69
2022/03/16 06:28:52;;;;;;;17.60;4.97;;;0.10;99.90;;;;;;4916721;29;20060;-69
2022/03/16 06:31:19;;;;;;;9.80;3.30;;;0.20;99.90;;;;;;4914994;29;20399;-69
2022/03/16 06:33:46;;;;;;;16.70;4.25;;;0.30;99.90;;;;;;4912841;29;20055;-76
2022/03/16 06:36:14;;;;;;;14.15;4.95;;;0.30;99.90;;;;;;4911291;29;20044;-75
2022/03/16 06:38:46;;;;;;;13.05;3.70;;;0.40;99.90;;;;;;4913803;29;20174;-77
2022/03/16 06:41:13;;;;;;;10.68;2.90;;;0.40;99.90;;;;;;4920054;29;20052;-70
2022/03/16 06:43:40;;;;;;;12.68;3.88;;;0.50;99.90;;;;;;4925238;29;20048;-70
2022/03/16 06:46:08;;;;;;;10.43;4.15;;;0.50;99.90;;;;;;4925840;29;20059;-69
2022/03/16 06:48:36;;;;;;;10.48;3.75;;;0.50;99.90;;;;;;4926842;29;20051;-70
2022/03/16 06:51:03;;;;;;;14.50;4.90;;;0.60;99.90;;;;;;4916537;29;20064;-70
2022/03/16 06:53:31;;;;;;;12.63;3.90;;;0.70;99.90;;;;;;4920956;29;20052;-70
2022/03/16 06:56:00;;;;;;;16.73;4.10;;;0.70;99.90;;;;;;4922901;29;20043;-69
2022/03/16 06:58:27;;;;;;;14.18;4.50;;;0.70;99.90;;;;;;4923840;29;20131;-70
2022/03/16 07:00:55;;;;;;;16.17;5.60;;;0.90;99.90;;;;;;4921267;29;20084;-70
2022/03/16 07:03:24;;;;;;;14.85;4.65;;;1.90;99.90;;;;;;4929307;29;20500;-71
2022/03/16 07:05:51;;;;;;;14.35;5.38;;;3.30;99.90;;;;;;4909669;29;20539;-72
2022/03/16 07:08:19;;;;;;;14.73;3.90;;;4.80;93.00;;;;;;4924703;29;20253;-71
2022/03/16 07:10:46;;;;;;;15.05;4.78;;;5.90;83.00;;;;;;4938480;28;20068;-69
2022/03/16 07:13:15;;;;;;;22.38;5.32;;;6.90;75.00;;;;;;4923781;29;20063;-69
2022/03/16 07:15:45;;;;;;;12.82;5.05;;;7.50;69.90;;;;;;4919257;29;20516;-69
2022/03/16 07:18:13;;;;;;;17.17;6.15;;;8.00;65.10;;;;;;4930777;29;20111;-70
2022/03/16 07:20:41;;;;;;;18.15;4.95;;;8.40;64.00;;;;;;4935752;29;20134;-77
2022/03/16 07:23:11;;;;;;;16.88;6.72;;;9.10;60.90;;;;;;4930101;29;20052;-76
2022/03/16 07:25:40;;;;;;;17.10;5.38;;;9.30;58.80;;;;;;4916946;29;20099;-75
2022/03/16 07:28:09;;;;;;;21.25;5.18;;;9.60;58.30;;;;;;4917354;29;20047;-78
2022/03/16 07:30:40;;;;;;;15.57;5.93;;;9.90;58.10;;;;;;4915766;29;20063;-77
2022/03/16 07:33:11;;;;;;;27.85;6.10;;;10.30;55.80;;;;;;4917149;29;20513;-76
2022/03/16 07:35:39;;;;;;;15.63;5.90;;;10.60;55.40;;;;;;4899389;29;20115;-76
2022/03/16 07:38:08;;;;;;;14.40;5.25;;;10.80;54.60;;;;;;4914082;29;20064;-76
2022/03/16 07:40:36;;;;;;;23.73;5.28;;;11.30;54.40;;;;;;4913360;29;20060;-76
2022/03/16 07:43:06;;;;;;;15.80;5.38;;;11.70;53.10;;;;;;4916304;29;20513;-76
2022/03/16 07:45:37;;;;;;;16.58;5.18;;;11.60;51.70;;;;;;4915746;29;20139;-74
2022/03/16 07:48:05;;;;;;;10.82;5.20;;;11.40;52.60;;;;;;4917137;29;20068;-76
2022/03/16 07:50:33;;;;;;;9.90;5.32;;;11.20;52.30;;;;;;4915255;29;20052;-79
2022/03/16 07:53:00;;;;;;;16.02;5.13;;;10.90;52.90;;;;;;4916542;29;20092;-76
2022/03/16 07:55:28;;;;;;;15.05;4.70;;;10.70;52.80;;;;;;4913300;29;20512;-77
2022/03/16 07:57:55;;;;;;;19.38;5.40;;;10.50;52.80;;;;;;4912039;29;20143;-74
2022/03/16 08:00:24;;;;;;;11.23;5.18;;;10.70;53.30;;;;;;4914444;29;20067;-75
2022/03/16 08:02:55;;;;;;;16.13;5.40;;;10.70;52.60;;;;;;4916305;29;20052;-70
2022/03/16 08:05:23;;;;;;;13.02;5.15;;;10.80;53.30;;;;;;4915854;29;20047;-70
2022/03/16 08:07:51;;;;;;;13.85;6.15;;;10.90;53.40;;;;;;4915722;29;20058;-70
2022/03/16 08:10:19;;;;;;;21.23;6.53;;;11.20;52.90;;;;;;4915517;29;20083;-69
2022/03/16 08:12:46;;;;;;;19.35;6.45;;;11.40;52.40;;;;;;4914332;29;20186;-70
2022/03/16 08:15:14;;;;;;;26.95;6.97;;;11.80;54.00;;;;;;4915960;29;20056;-70
2022/03/16 08:17:41;;;;;;;17.35;6.88;;;12.60;53.50;;;;;;4914245;29;20143;-70
2022/03/16 08:20:12;;;;;;;20.42;5.85;;;13.40;51.90;;;;;;4898581;29;20501;-71
2022/03/16 08:22:39;;;;;;;18.15;7.10;;;13.90;49.60;;;;;;4914164;29;20056;-69
2022/03/16 08:25:09;;;;;;;22.20;6.68;;;14.40;48.20;;;;;;4915482;29;20064;-70
2022/03/16 08:27:39;;;;;;;24.50;6.00;;;14.80;47.40;;;;;;4913902;29;20426;-70
2022/03/16 08:30:08;;;;;;;20.27;6.22;;;15.20;46.10;;;;;;4915288;29;20115;-69
2022/03/16 08:32:36;;;;;;;14.35;5.35;;;15.50;45.80;;;;;;4914439;29;20115;-69
2022/03/16 08:35:06;;;;;;;14.77;5.75;;;15.50;45.50;;;;;;4915401;29;20048;-70
2022/03/16 08:37:37;;;;;;;15.68;5.30;;;15.50;44.60;;;;;;4915317;29;20087;-69
2022/03/16 08:40:07;;;;;;;21.63;6.20;;;15.60;44.40;;;;;;4915439;29;20051;-69
2022/03/16 08:42:34;;;;;;;13.98;5.88;;;15.40;44.00;;;;;;4913285;29;20432;-69
2022/03/16 08:45:02;;;;;;;17.25;5.20;;;15.40;44.70;;;;;;4912256;29;20140;-74
2022/03/16 08:47:31;;;;;;;18.38;5.45;;;15.50;44.00;;;;;;4912422;29;20055;-74
2022/03/16 08:49:58;;;;;;;13.48;5.35;;;16.00;44.10;;;;;;4913887;29;20071;-76
2022/03/16 08:52:29;;;;;;;18.52;5.38;;;15.90;43.30;;;;;;4912886;29;20063;-77
2022/03/16 08:54:58;;;;;;;14.18;4.82;;;15.90;44.60;;;;;;4910961;29;20059;-74
2022/03/16 08:57:25;;;;;;;15.95;5.28;;;16.10;43.30;;;;;;4912678;29;20094;-75
2022/03/16 08:59:55;;;;;;;12.75;4.97;;;16.10;43.30;;;;;;4917273;29;20146;-74
2022/03/16 09:02:23;;;;;;;20.33;4.63;;;16.70;43.80;;;;;;4927250;29;20056;-75
2022/03/16 09:04:52;;;;;;;12.88;4.75;;;17.40;42.90;;;;;;4916033;29;20044;-76
2022/03/16 09:07:19;;;;;;;16.83;4.28;;;17.50;41.40;;;;;;4912145;29;20058;-77
2022/03/16 09:09:46;;;;;;;15.90;4.80;;;17.80;41.00;;;;;;4914251;29;20070;-75
2022/03/16 09:12:15;;;;;;;11.88;5.00;;;17.90;40.30;;;;;;4890066;29;20056;-75
2022/03/16 09:14:43;;;;;;;17.60;5.13;;;17.80;40.60;;;;;;4916339;29;20093;-70
2022/03/16 09:17:11;;;;;;;7.85;4.55;;;17.70;41.30;;;;;;4914405;29;20056;-70
2022/03/16 09:19:38;;;;;;;14.40;4.93;;;17.80;43.20;;;;;;4914387;29;20056;-68
2022/03/16 09:22:06;;;;;;;19.08;5.50;;;17.50;41.20;;;;;;4897350;29;20138;-68
2022/03/16 09:24:33;;;;;;;18.33;5.13;;;17.20;40.80;;;;;;4907579;29;20163;-70
2022/03/16 09:27:00;;;;;;;15.27;5.53;;;17.00;41.60;;;;;;4898144;29;20429;-70
2022/03/16 09:29:29;;;;;;;27.30;5.13;;;17.20;41.10;;;;;;4883927;29;20049;-70
2022/03/16 09:31:57;;;;;;;13.70;5.30;;;17.40;41.70;;;;;;4911218;29;20052;-70
2022/03/16 09:34:25;;;;;;;16.92;5.22;;;17.70;42.20;;;;;;4913038;29;20139;-69
2022/03/16 09:36:52;;;;;;;16.40;4.85;;;18.10;40.50;;;;;;4914055;29;20048;-71
2022/03/16 09:39:20;;;;;;;16.10;4.82;;;18.40;39.50;;;;;;4914030;29;20052;-69
2022/03/16 09:41:47;;;;;;;20.65;4.80;;;18.40;40.00;;;;;;4915114;29;20048;-71
2022/03/16 09:44:15;;;;;;;13.75;4.53;;;18.30;39.70;;;;;;4914057;29;20080;-71
2022/03/16 09:46:46;;;;;;;11.80;4.35;;;18.60;39.10;;;;;;4912435;29;20043;-72
2022/03/16 09:49:15;;;;;;;9.65;4.45;;;18.40;38.90;;;;;;4895265;29;20428;-70
2022/03/16 09:51:43;;;;;;;12.80;4.63;;;18.10;40.00;;;;;;4918933;29;20058;-70
2022/03/16 09:54:12;;;;;;;10.55;4.57;;;18.00;39.70;;;;;;4917362;29;20513;-70
2022/03/16 09:56:40;;;;;;;12.88;4.10;;;18.20;39.10;;;;;;4913025;29;20504;-70
2022/03/16 09:59:07;;;;;;;13.25;4.70;;;18.10;39.20;;;;;;4913657;29;20059;-69
2022/03/16 10:01:35;;;;;;;11.23;3.80;;;17.60;39.50;;;;;;4906974;29;20056;-69
2022/03/16 10:04:06;;;;;;;14.80;4.43;;;16.90;40.40;;;;;;4914000;29;20052;-70
2022/03/16 10:06:37;;;;;;;12.63;4.57;;;16.40;41.10;;;;;;4913922;29;20052;-69
2022/03/16 10:15:02;;;;;;;7.85;4.50;;;17.40;41.10;;;;;;4912121;29;20075;-70
2022/03/16 10:17:46;;;;;;;6.93;4.10;;;18.10;39.80;;;;;;4913751;29;20064;-70
2022/03/16 10:20:30;;;;;;;10.95;4.10;;;18.60;39.00;;;;;;4912491;29;20080;-69
2022/03/16 10:23:04;;;;;;;9.52;4.47;;;19.00;38.90;;;;;;4913664;29;20055;-70
2022/03/16 10:25:36;;;;;;;8.65;4.20;;;19.30;38.50;;;;;;4914095;29;20052;-76
2022/03/16 10:28:11;;;;;;;6.15;4.15;;;20.10;37.40;;;;;;4911083;29;20080;-74
2022/03/16 10:30:58;;;;;;;9.10;4.40;;;20.50;36.60;;;;;;4895407;29;20056;-75
2022/03/16 10:33:30;;;;;;;14.48;4.38;;;20.90;36.30;;;;;;4902016;29;20052;-70
2022/03/16 10:36:03;;;;;;;11.23;4.32;;;20.90;36.20;;;;;;4917121;29;20048;-69
2022/03/16 10:38:31;;;;;;;11.15;4.80;;;20.80;36.40;;;;;;4913793;29;20473;-69
2022/03/16 10:46:34;;;;;;;13.70;3.90;;;20.40;36.30;;;;;;4914217;29;20094;-69
2022/03/16 10:46:52;;;;;;;11.13;4.97;;;19.90;36.80;;;;;;4895088;29;20129;-71
2022/03/16 10:49:22;;;;;;;13.07;4.50;;;19.20;37.40;;;;;;4896873;29;20068;-69
2022/03/16 10:52:11;;;;;;;9.60;4.38;;;18.60;38.40;;;;;;4910447;29;20465;-69
2022/03/16 10:54:41;;;;;;;9.43;4.22;;;18.50;39.10;;;;;;4912257;29;20052;-69
2022/03/16 10:57:13;;;;;;;14.82;4.93;;;18.70;39.40;;;;;;4899409;29;20611;-69
2022/03/16 10:59:42;;;;;;;9.73;4.60;;;18.60;39.20;;;;;;4917316;29;20055;-69
2022/03/16 11:02:24;;;;;;;12.73;4.97;;;18.90;39.10;;;;;;4916998;29;20524;-75
2022/03/16 11:04:57;;;;;;;13.18;4.43;;;18.90;38.20;;;;;;4916509;29;20052;-77
2022/03/16 11:07:31;;;;;;;8.98;4.38;;;18.10;38.50;;;;;;4901425;29;20075;-76
2022/03/16 11:09:59;;;;;;;11.95;4.72;;;17.90;39.40;;;;;;4917266;29;20191;-70
2022/03/16 11:15:13;;;;;;;11.18;4.75;;;17.80;40.70;;;;;;4900358;29;20075;-75
2022/03/16 11:17:41;;;;;;;14.85;4.18;;;17.60;40.30;;;;;;4916769;29;20040;-76
2022/03/16 11:20:10;;;;;;;14.70;4.45;;;17.60;40.00;;;;;;4916907;29;20059;-78
2022/03/16 11:24:15;;;;;;;14.63;4.47;;;17.80;39.60;;;;;;4916450;29;20095;-75
2022/03/16 11:26:05;;;;;;;8.90;3.92;;;18.30;40.00;;;;;;4916617;29;20052;-77
2022/03/16 11:28:51;;;;;;;9.00;3.60;;;18.50;39.50;;;;;;4923148;29;20563;-75
2022/03/16 11:31:25;;;;;;;9.48;4.68;;;18.90;39.10;;;;;;4934242;29;20591;-77
2022/03/16 11:33:54;;;;;;;11.20;3.80;;;19.30;38.40;;;;;;4922999;29;20457;-75
2022/03/16 11:36:40;;;;;;;11.18;4.13;;;19.50;38.00;;;;;;4914927;29;20060;-70
2022/03/16 11:39:18;;;;;;;12.85;4.72;;;20.20;37.30;;;;;;4885250;29;20056;-71
2022/03/16 11:41:51;;;;;;;14.02;5.25;;;20.50;37.00;;;;;;4919999;29;20063;-71
2022/03/16 11:44:29;;;;;;;17.67;5.72;;;21.00;36.20;;;;;;4915108;29;20063;-72
2022/03/16 11:47:33;;;;;;;22.83;9.88;;;21.20;36.80;;;;;;4910183;29;20080;-69
2022/03/16 11:50:14;;;;;;;27.35;10.00;;;21.60;35.60;;;;;;4906488;29;20084;-72
2022/03/16 11:53:05;;;;;;;28.40;10.13;;;21.70;35.00;;;;;;4929741;29;20064;-70
2022/03/16 11:55:55;;;;;;;27.85;10.70;;;21.90;35.00;;;;;;4906787;29;20052;-70
2022/03/16 11:58:32;;;;;;;31.40;11.75;;;22.30;34.60;;;;;;4900022;29;20118;-70
2022/03/16 12:01:29;;;;;;;21.00;8.82;;;22.10;34.30;;;;;;4912178;29;20048;-77
2022/03/16 12:04:19;;;;;;;18.05;8.32;;;21.80;34.90;;;;;;4921223;29;20414;-71
2022/03/16 12:06:56;;;;;;;17.50;8.40;;;21.70;35.00;;;;;;4918930;29;20066;-70
2022/03/16 12:09:38;;;;;;;16.92;7.00;;;21.20;36.20;;;;;;4919109;29;20066;-68
2022/03/16 12:15:27;;;;;;;13.98;5.90;;;19.80;37.40;;;;;;4920874;29;20071;-76
2022/03/16 12:18:31;;;;;;;12.32;5.35;;;20.10;37.30;;;;;;4921461;29;20056;-76
2022/03/16 12:21:08;;;;;;;17.02;5.18;;;20.30;37.80;;;;;;4907157;29;20468;-72
2022/03/16 12:25:08;;;;;;;14.00;4.57;;;21.20;36.30;;;;;;4921739;29;20091;-70
2022/03/16 12:29:35;;;;;;;10.40;4.45;;;22.20;34.80;;;;;;4914506;29;20119;-69
2022/03/16 12:32:03;;;;;;;19.02;4.72;;;22.60;34.50;;;;;;4913992;29;20568;-69
2022/03/16 12:34:31;;;;;;;9.50;4.07;;;22.70;34.70;;;;;;4903302;29;20517;-77
2022/03/16 12:37:02;;;;;;;8.75;4.38;;;22.70;34.60;;;;;;4913576;29;20044;-77
2022/03/16 12:39:31;;;;;;;14.30;4.30;;;22.10;34.30;;;;;;4914620;29;20602;-76
2022/03/16 12:45:06;;;;;;;13.98;4.00;;;20.00;36.90;;;;;;4911737;29;20064;-75
2022/03/16 12:47:41;;;;;;;11.10;3.83;;;19.00;37.80;;;;;;4912095;29;20055;-76
2022/03/16 12:50:13;;;;;;;8.43;3.80;;;18.80;38.30;;;;;;4872810;29;1213016;-77
2022/03/16 12:52:46;;;;;;;9.77;3.83;;;18.70;38.60;;;;;;4905498;29;20112;-70
2022/03/16 12:55:18;;;;;;;8.80;3.35;;;18.00;38.90;;;;;;4914070;29;20115;-75
2022/03/16 12:57:52;;;;;;;13.20;3.40;;;18.10;39.20;;;;;;4915319;29;20055;-77
2022/03/16 13:00:21;;;;;;;9.90;3.45;;;19.20;38.70;;;;;;4903569;29;20063;-70
2022/03/16 13:02:50;;;;;;;13.38;3.33;;;19.70;37.20;;;;;;4894942;29;20104;-70
2022/03/16 13:05:20;;;;;;;5.32;2.78;;;19.90;37.00;;;;;;4923410;29;20115;-69
2022/03/16 13:07:53;;;;;;;7.15;3.35;;;20.70;36.90;;;;;;4918510;29;20044;-70
2022/03/16 13:10:28;;;;;;;9.35;3.35;;;21.30;35.30;;;;;;4934259;29;20589;-68
2022/03/16 13:13:10;;;;;;;9.65;3.55;;;21.80;34.80;;;;;;4905134;29;20063;-70
2022/03/16 13:15:44;;;;;;;8.45;3.50;;;21.40;34.90;;;;;;4913548;29;20052;-71
2022/03/16 13:18:12;;;;;;;7.55;3.00;;;21.10;35.40;;;;;;4916195;29;20174;-72